Latest Weather Observations for Geraldton Airport

IDW60801

Issued at 6:35 pm WST Thursday 2 October 2014 (issued every 30 minutes, with the page automatically refreshed every 10 minutes)

About weather observations | Map of weather stations | Latest weather observations for WA | Other Formats
Station Details ID: 008315 Name: GERALDTON AIRPORT Lat: -28.80 Lon: 114.70 Height: 29.7 m
Data from the previous 72 hours. | See also: Recent months at Geraldton Airport
Date/Time
WST
Temp
°C
App
Temp
°C
Dew
Point
Rel
Hum
%
Delta-T
°C
Wind Press
QNH
hPa
Press
MSL
hPa
Rain
since 9 am
mm
Dir
 
Spd
km/h
Gust
km/h
Spd
kts
Gust
kts
02/06:30pm 19.7 17.9 15.4 76 2.5 SSW 19 24 10 13 1017.7 - 0.0
02/06:00pm 19.8 18.2 15.9 78 2.3 SSW 19 24 10 13 1017.4 1017.3 0.0
02/05:30pm 20.2 17.8 15.5 74 2.8 SW 22 30 12 16 1017.2 - 0.0
02/05:00pm 20.5 17.3 15.3 72 3.1 SW 26 35 14 19 1016.8 - 0.0
02/04:30pm 20.8 17.6 15.4 71 3.2 SW 26 33 14 18 1016.8 - 0.0
02/04:00pm 20.4 17.2 15.3 72 3.0 SW 26 33 14 18 1016.5 - 0.0
02/03:30pm 20.7 17.6 15.7 73 3.0 SW 26 35 14 19 1016.3 - 0.0
02/03:00pm 21.3 17.0 15.3 68 3.6 SW 32 39 17 21 1015.9 1015.8 0.0
02/02:30pm 21.9 18.8 15.6 67 3.8 SW 26 37 14 20 1015.9 - 0.0
02/02:00pm 22.4 19.2 15.2 63 4.3 WSW 26 33 14 18 1015.9 - 0.0
02/01:30pm 23.1 18.7 12.8 52 5.9 WSW 28 37 15 20 1015.8 - 0.0
02/01:00pm 23.9 20.4 14.6 56 5.5 WSW 26 35 14 19 1015.8 - 0.0
02/12:30pm 23.2 18.5 14.4 57 5.2 W 32 41 17 22 1015.8 - 0.0
02/12:00pm 22.3 18.7 15.3 64 4.2 WSW 28 37 15 20 1015.9 1015.8 0.0
02/11:30am 22.2 19.2 14.7 62 4.4 WSW 24 33 13 18 1016.1 - 0.0
02/11:00am 22.7 19.4 14.0 58 5.1 WSW 24 33 13 18 1016.1 - 0.0
02/10:30am 23.3 19.7 13.1 52 5.9 W 24 33 13 18 1016.2 - 0.0
02/10:00am 22.9 18.9 13.0 53 5.7 W 26 33 14 18 1015.9 - 0.0
02/09:30am 22.4 19.7 15.5 65 4.1 WSW 24 35 13 19 1015.8 - 0.0
02/09:00am 22.2 20.4 16.1 68 3.7 WSW 20 28 11 15 1015.7 1015.6 0.0
02/08:30am 21.1 20.6 17.8 81 2.0 W 17 24 9 13 1015.6 - 0.0
02/08:00am 20.4 21.0 17.7 84 1.7 NW 11 20 6 11 1015.5 - 0.0
02/07:30am 19.0 20.4 17.7 92 0.8 N 7 9 4 5 1015.3 - 0.0
02/07:00am 18.4 19.6 17.3 93 0.7 N 7 11 4 6 1015.1 - 0.0
02/06:30am 17.7 17.5 16.7 94 0.6 N 13 17 7 9 1014.9 - 0.0
02/06:00am 17.3 16.6 16.5 95 0.5 NNE 15 19 8 10 1014.7 1014.6 0.0
02/05:30am 17.3 16.6 16.5 95 0.5 NNE 15 19 8 10 1014.3 - 0.0
02/05:00am 17.1 16.7 16.3 95 0.5 NNE 13 17 7 9 1014.1 - 0.0
02/04:30am 16.4 15.4 15.7 96 0.4 NNE 15 17 8 9 1013.7 - 0.0
02/04:00am 16.8 16.0 16.1 96 0.4 NNE 15 19 8 10 1013.6 - 0.0
02/03:33am 16.9 16.5 16.2 96 0.4 N 13 15 7 8 1013.3 - 0.0
02/03:30am 16.7 16.3 16.1 96 0.4 N 13 15 7 8 1013.3 - 0.0
02/03:13am 16.2 16.0 15.8 97 0.2 NNE 11 15 6 8 1013.1 - 0.0
02/03:00am 16.5 16.8 16.0 97 0.3 N 9 11 5 6 1013.2 1013.1 0.0
02/02:43am 17.1 17.2 16.4 96 0.4 NNE 11 15 6 8 1013.5 - 0.0
02/02:30am 17.9 18.2 17.1 95 0.5 N 11 15 6 8 1013.3 - 0.0
02/02:21am 18.1 18.5 17.3 95 0.5 N 11 13 6 7 1013.5 - 0.0
02/02:00am 18.2 18.6 17.3 94 0.5 NNE 11 15 6 8 1013.3 - 0.0
02/01:30am 18.2 19.0 17.4 95 0.5 N 9 11 5 6 1013.3 - 0.0
02/01:00am 18.2 18.3 17.4 95 0.5 N 13 15 7 8 1013.4 - 0.0
02/12:30am 18.5 19.0 17.5 94 0.6 N 11 13 6 7 1013.6 - 0.0
02/12:00am 18.9 20.3 17.8 93 0.7 NNE 7 9 4 5 1013.9 1013.8 0.0
 
Date/Time
WST
Temp
°C
App
Temp
°C
Dew
Point
Rel
Hum
%
Delta-T
°C
Wind Press
QNH
hPa
Press
MSL
hPa
Rain
since 9 am
mm
Dir
 
Spd
km/h
Gust
km/h
Spd
kts
Gust
kts
01/11:30pm 19.2 20.7 17.7 91 0.9 N 6 7 3 4 1013.9 - 0.0
01/11:00pm 19.7 20.4 17.9 89 1.1 NNW 11 15 6 8 1014.1 - 0.0
01/10:44pm 19.6 20.3 18.0 90 1.0 NNW 11 15 6 8 1014.4 - 0.0
01/10:30pm 19.8 19.8 18.1 90 1.1 NNW 15 20 8 11 1014.6 - 0.0
01/10:00pm 20.0 20.8 18.1 89 1.2 N 11 19 6 10 1014.5 - 0.0
01/09:50pm 20.1 20.4 18.0 88 1.3 N 13 20 7 11 1014.7 - 0.0
01/09:30pm 20.2 19.4 18.0 87 1.4 NNW 19 30 10 16 1014.6 - 0.0
01/09:00pm 20.3 17.8 18.0 87 1.4 NW 28 41 15 22 1014.3 1014.2 0.0
01/08:30pm 20.6 18.0 17.7 83 1.8 NW 28 41 15 22 1013.9 - 0.0
01/08:00pm 20.8 17.7 17.4 81 2.1 NW 30 41 16 22 1013.4 - 0.0
01/07:22pm 21.2 17.2 16.2 73 3.0 NW 32 50 17 27 1012.9 - 0.0
01/07:00pm 21.5 17.3 16.1 71 3.3 NW 33 48 18 26 1012.5 - 0.0
01/06:30pm 21.7 17.0 15.8 69 3.5 NW 35 54 19 29 1012.2 - 0.0
01/06:00pm 22.3 16.2 15.3 64 4.2 NW 41 65 22 35 1011.9 1011.8 0.0
01/05:51pm 22.5 16.4 15.3 63 4.3 NW 41 63 22 34 1011.8 - 0.0
01/05:30pm 22.8 17.0 16.1 66 4.1 NW 41 57 22 31 1011.7 - 0.0
01/05:01pm 23.5 19.0 16.5 65 4.3 NW 35 54 19 29 1011.6 - 0.0
01/05:00pm 23.5 18.7 16.5 65 4.3 NW 37 54 20 29 1011.6 - 0.0
01/04:25pm 23.9 20.0 16.4 63 4.6 NW 32 50 17 27 1011.3 - 0.0
01/04:00pm 25.4 20.6 14.5 51 6.5 NW 33 44 18 24 1011.0 - 0.0
01/03:30pm 27.1 21.5 12.1 39 8.7 NW 33 43 18 23 1010.8 - 0.0
01/03:00pm 28.4 22.8 10.1 32 10.3 NW 30 39 16 21 1010.8 1010.7 0.0
01/02:30pm 28.9 23.1 9.4 29 10.9 NW 30 39 16 21 1010.7 - 0.0
01/02:00pm 30.2 24.0 7.9 24 12.2 NW 30 35 16 19 1010.8 - 0.0
01/01:30pm 30.4 24.9 7.5 24 12.5 NW 26 46 14 25 1010.9 - 0.0
01/01:00pm 32.3 28.9 9.3 24 13.0 NW 17 26 9 14 1011.1 - 0.0
01/12:30pm 32.2 28.3 8.7 23 13.2 WNW 19 26 10 14 1011.6 - 0.0
01/12:00pm 32.3 26.5 4.4 17 14.6 N 24 28 13 15 1012.0 1011.9 0.0
01/11:30am 31.4 25.3 2.7 16 14.5 N 24 33 13 18 1012.5 - 0.0
01/11:00am 31.7 25.7 3.1 16 14.6 N 24 32 13 17 1012.7 - 0.0
01/10:30am 30.0 22.8 0.7 15 14.2 NNE 28 41 15 22 1012.9 - 0.0
01/09:58am 29.4 20.4 0.1 15 14.0 NNE 37 56 20 30 1012.7 - 0.0
01/09:38am 29.2 19.0 -0.4 14 14.0 NE 43 61 23 33 1012.4 - 0.0
01/09:30am 29.3 19.2 0.6 15 13.8 NE 43 56 23 30 1012.6 - 0.0
01/09:00am 27.4 18.2 1.4 18 12.5 ENE 39 54 21 29 1012.7 1012.6 0.0
01/08:35am 27.0 19.1 2.1 20 12.1 ENE 33 54 18 29 1013.1 - 0.0
01/08:30am 26.6 18.4 2.8 21 11.7 ENE 35 52 19 28 1013.2 - 0.0
01/08:00am 24.9 16.7 2.8 23 10.7 E 35 48 19 26 1013.2 - 0.0
01/07:30am 23.8 16.0 2.8 25 10.1 ENE 33 46 18 25 1013.3 - 0.0
01/07:00am 22.7 15.2 3.2 28 9.4 E 32 44 17 24 1013.1 - 0.0
01/06:30am 20.1 15.1 4.7 36 7.5 E 20 30 11 16 1013.4 - 0.0
01/06:00am 18.0 15.0 6.2 46 5.8 SE 11 17 6 9 1013.5 1013.4 0.0
01/05:30am 17.9 13.6 5.3 43 6.1 E 17 22 9 12 1013.5 - 0.0
01/05:00am 16.9 14.0 6.4 50 5.2 ESE 11 15 6 8 1013.6 - 0.0
01/04:30am 18.6 14.2 4.9 40 6.6 SE 17 26 9 14 1013.8 - 0.0
01/04:00am 16.7 12.7 6.8 52 4.9 ESE 17 19 9 10 1013.8 - 0.0
01/03:30am 15.4 11.8 8.3 62 3.6 SE 17 20 9 11 1013.9 - 0.0
01/03:00am 13.8 10.2 9.8 77 2.1 ESE 19 20 10 11 1014.2 1014.1 0.0
01/02:30am 13.0 11.6 12.2 95 0.4 SSE 11 13 6 7 1014.5 - 0.0
01/02:00am 12.9 11.1 12.2 95 0.4 SE 13 15 7 8 1014.9 - 0.0
01/01:30am 13.5 12.3 12.8 95 0.4 SE 11 15 6 8 1015.3 - 0.0
01/01:00am 13.6 12.8 12.9 95 0.4 SE 9 13 5 7 1015.5 - 0.0
01/12:30am 13.9 12.8 13.1 95 0.4 SSE 11 15 6 8 1015.6 - 0.0
01/12:00am 14.3 13.3 13.5 95 0.4 SE 11 13 6 7 1016.0 1016.0 0.0
 
Date/Time
WST
Temp
°C
App
Temp
°C
Dew
Point
Rel
Hum
%
Delta-T
°C
Wind Press
QNH
hPa
Press
MSL
hPa
Rain
since 9 am
mm
Dir
 
Spd
km/h
Gust
km/h
Spd
kts
Gust
kts
30/11:30pm 15.1 13.5 14.0 93 0.6 SE 15 19 8 10 1016.2 - 0.0
30/11:00pm 15.7 13.9 14.4 92 0.7 SE 17 24 9 13 1016.6 - 0.0
30/10:35pm 15.9 14.6 14.9 94 0.6 SSE 15 19 8 10 1016.8 - 0.0
30/10:30pm 15.9 14.7 15.0 94 0.5 SSE 15 19 8 10 1016.8 - 0.0
30/10:16pm 16.0 15.2 15.1 94 0.5 SSE 13 17 7 9 1017.0 - 0.0
30/10:00pm 16.3 15.2 15.3 94 0.6 SSE 15 20 8 11 1017.2 - 0.0
30/09:30pm 16.6 15.1 15.4 93 0.7 SE 17 24 9 13 1017.5 - 0.0
30/09:00pm 17.7 15.9 15.9 89 1.1 SSE 20 26 11 14 1017.7 1017.8 0.0
30/08:30pm 17.9 16.0 15.7 87 1.3 SSE 20 30 11 16 1017.9 - 0.0
30/08:00pm 17.8 15.8 15.6 87 1.3 SSE 20 26 11 14 1018.1 - 0.0
30/07:30pm 18.0 16.1 15.3 84 1.6 SSE 19 26 10 14 1018.2 - 0.0
30/07:00pm 18.3 16.1 15.0 81 1.9 SSE 20 24 11 13 1018.0 - 0.0
30/06:30pm 18.9 16.6 14.6 76 2.5 SSE 20 28 11 15 1017.9 - 0.0
30/06:00pm 19.9 16.6 14.1 69 3.3 S 24 39 13 21 1017.7 1017.8 0.0
30/05:30pm 20.7 16.1 13.6 64 4.1 S 30 39 16 21 1017.5 - 0.0
30/05:00pm 21.7 17.2 12.7 56 5.1 S 28 37 15 20 1017.2 - 0.0
30/04:30pm 22.5 18.4 12.7 54 5.6 S 26 35 14 19 1017.0 - 0.0
30/04:00pm 23.5 18.7 11.8 47 6.6 S 28 39 15 21 1016.9 - 0.0
30/03:30pm 23.8 19.1 10.8 44 7.2 S 26 35 14 19 1016.9 - 0.0
30/03:00pm 24.0 18.7 11.4 45 7.1 S 30 37 16 20 1016.8 1016.8 0.0
30/02:30pm 24.2 18.6 11.6 45 7.1 SSW 32 39 17 21 1016.9 - 0.0
30/02:00pm 25.0 20.7 10.9 41 7.9 S 24 33 13 18 1017.1 - 0.0
30/01:30pm 26.7 23.9 8.7 32 9.8 E 13 17 7 9 1017.6 - 0.0
30/01:00pm 25.9 21.4 8.7 33 9.3 ESE 22 32 12 17 1018.0 - 0.0
30/12:30pm 24.6 20.8 9.1 37 8.4 ENE 19 28 10 15 1018.5 - 0.0
30/12:00pm 24.2 20.4 9.8 40 7.9 E 20 28 11 15 1019.1 1019.2 0.0
30/11:30am 23.4 19.1 9.4 41 7.6 E 22 32 12 17 1019.5 - 0.0
30/11:00am 22.4 18.1 9.2 43 7.1 SE 22 37 12 20 1019.8 - 0.0
30/10:30am 22.5 18.3 9.8 44 6.9 E 22 28 12 15 1020.1 - 0.0
30/10:00am 20.9 17.1 9.9 49 5.9 ESE 20 28 11 15 1020.5 - 0.0
30/09:30am 20.1 14.8 9.8 51 5.5 SE 28 37 15 20 1020.6 - 0.0
30/09:00am 18.9 14.0 10.1 56 4.7 ESE 26 35 14 19 1020.9 1021.0 0.0
30/08:30am 17.8 13.5 10.6 62 3.9 ESE 24 33 13 18 1021.0 - 0.0
30/08:00am 16.0 11.7 10.9 72 2.7 ESE 24 33 13 18 1021.0 - 0.0
30/07:30am 14.6 11.2 11.4 81 1.7 ESE 20 30 11 16 1020.9 - 0.0
30/07:00am 13.4 10.7 11.7 89 0.9 SE 17 24 9 13 1020.7 - 0.0
30/06:30am 11.5 9.3 10.7 95 0.4 SE 13 15 7 8 1020.5 - 0.0
30/06:00am 10.4 8.3 9.8 96 0.3 SE 11 15 6 8 1020.3 1020.4 0.0
30/05:30am 9.7 8.2 9.3 97 0.2 SE 7 9 4 5 1020.1 - 0.0
30/05:00am 10.0 7.5 9.6 97 0.2 SE 13 15 7 8 1019.8 - 0.0
30/04:30am 10.1 8.0 9.6 97 0.3 SSE 11 11 6 6 1019.7 - 0.0
30/04:00am 10.3 8.6 9.7 96 0.3 SE 9 11 5 6 1019.5 - 0.0
30/03:30am 10.4 8.7 9.8 96 0.3 ESE 9 11 5 6 1019.4 - 0.0
30/03:00am 11.3 9.4 10.5 95 0.4 SSE 11 13 6 7 1019.4 1019.5 0.0
30/02:30am 11.6 9.8 11.0 96 0.3 SSE 11 13 6 7 1019.4 - 0.0
30/02:00am 12.1 10.1 11.4 95 0.4 SSE 13 15 7 8 1019.6 - 0.0
30/01:30am 12.1 10.5 11.4 95 0.4 SSE 11 15 6 8 1019.8 - 0.0
30/01:00am 12.3 10.4 11.7 96 0.3 SSE 13 15 7 8 1019.9 - 0.0
30/12:30am 12.3 10.8 11.8 97 0.3 SSE 11 13 6 7 1020.0 - 0.0
30/12:00am 12.3 10.7 11.6 95 0.4 SSE 11 13 6 7 1020.2 1020.3 0.0
 
Date/Time
WST
Temp
°C
App
Temp
°C
Dew
Point
Rel
Hum
%
Delta-T
°C
Wind Press
QNH
hPa
Press
MSL
hPa
Rain
since 9 am
mm
Dir
 
Spd
km/h
Gust
km/h
Spd
kts
Gust
kts
29/11:30pm 12.8 11.8 12.2 96 0.3 SSE 9 11 5 6 1020.3 - 0.0
29/11:00pm 13.1 12.1 12.4 95 0.4 SSE 9 11 5 6 1020.3 - 0.0
29/10:30pm 13.3 12.3 12.4 94 0.5 SE 9 9 5 5 1020.4 - 0.0
29/10:00pm 13.1 12.5 12.4 95 0.4 SE 7 9 4 5 1020.5 - 0.0
29/09:30pm 14.5 14.3 13.5 94 0.6 ESE 7 7 4 4 1020.5 - 0.0
29/09:00pm 14.5 14.5 13.5 94 0.6 E 6 7 3 4 1020.6 1020.7 0.0
29/08:30pm 14.9 14.7 13.5 91 0.8 ESE 7 7 4 4 1020.5 - 0.0
29/08:00pm 14.6 14.5 13.2 91 0.8 E 6 7 3 4 1020.1 - 0.0
29/07:30pm 15.1 15.0 13.3 89 1.0 SSE 6 7 3 4 1019.7 - 0.0
29/07:00pm 16.3 15.9 14.0 86 1.3 S 9 11 5 6 1019.2 - 0.0

Other Formats:

Comma delimited format used in spreadsheet applications
http://www.bom.gov.au/fwo/IDW60801/IDW60801.94403.axf

JavaScript Object Notation format (JSON) in row-major order
http://www.bom.gov.au/fwo/IDW60801/IDW60801.94403.json